Terminal Aerodrome Forecast
Issued by NWS

Home | Current Version | Previous Version | Text Only | Print | Product List | Glossary On
Versions: 1 2 3 4 5 6 7 8 9 10 11 12 13 14 15 16 17 18 19 20 21 22 23 24 25 26 27 28 29 30 31 32 33 34
000
FTUS44 KFWD 171740
TAFFTW
TAF
KFTW 171740Z 1718/1818 19017G27KT P6SM SCT030
     FM181000 23014KT P6SM BKN250
     FM181500 31023G34KT P6SM BKN250=

USA.gov is the U.S. government's official web portal to all federal, state and local government web resources and services.